Time;durP1;ratioP1;P1;durP2;ratioP2;P2;SDS_P1;SDS_P2;PMS_P1;PMS_P2;Temp;Humidity;BMP_temperature;BMP_pressure;BME280_temperature;BME280_humidity;BME280_pressure;Samples;Min_cycle;Max_cycle;Signal;HPM_P1;HPM_P2
2021/12/13 00:02:32;;;;;;;45.17;41.90;;;;;;;12.46;100.00;102269.29;1936258;73;86213;-71
2021/12/13 00:08:22;;;;;;;45.27;42.17;;;;;;;12.41;100.00;102275.65;1924773;72;39773;-70
2021/12/13 00:14:10;;;;;;;45.83;42.80;;;;;;;12.46;100.00;102270.68;1828583;76;86874;-71
2021/12/13 00:20:12;;;;;;;46.77;43.77;;;;;;;12.39;100.00;102280.66;1809111;77;85969;-69
2021/12/13 00:26:00;;;;;;;47.83;44.63;;;;;;;12.36;100.00;102277.56;1806471;78;86655;-70
2021/12/13 00:35:06;;;;;;;47.23;44.03;;;;;;;12.32;100.00;102279.45;1850357;76;86648;-72
2021/12/13 00:40:54;;;;;;;50.33;46.93;;;;;;;12.29;100.00;102272.18;1903798;74;85220;-69
2021/12/13 00:46:44;;;;;;;48.10;44.70;;;;;;;12.38;100.00;102291.52;1911343;74;86331;-69
2021/12/13 00:52:33;;;;;;;48.17;44.80;;;;;;;12.41;100.00;102290.16;1912755;73;85322;-69
2021/12/13 00:58:21;;;;;;;48.27;45.17;;;;;;;12.38;100.00;102297.63;1939624;71;40274;-69
2021/12/13 01:04:10;;;;;;;47.20;44.03;;;;;;;12.23;100.00;102285.78;1835998;76;86284;-69
2021/12/13 01:11:18;;;;;;;47.80;44.50;;;;;;;12.28;100.00;102290.00;1915548;73;86666;-71
2021/12/13 01:17:18;;;;;;;49.77;46.10;;;;;;;12.08;100.00;102277.23;1845068;76;86481;-71
2021/12/13 01:23:06;;;;;;;49.20;45.80;;;;;;;11.94;100.00;102276.78;1830074;76;86787;-71
2021/12/13 01:28:55;;;;;;;51.67;48.13;;;;;;;11.92;100.00;102278.16;1880316;74;86745;-69
2021/12/13 01:31:29;;;;;;;49.07;45.83;;;;;;;11.80;100.00;102283.86;1821811;75;938134;-71
2021/12/13 01:37:16;;;;;;;49.73;46.37;;;;;;;11.82;100.00;102273.30;1944378;71;39545;-72
2021/12/13 01:43:04;;;;;;;49.97;46.57;;;;;;;11.76;100.00;102262.67;1847223;76;86523;-71
2021/12/13 01:48:53;;;;;;;48.10;45.00;;;;;;;11.81;100.00;102258.53;1883778;74;86284;-69
2021/12/13 01:54:39;;;;;;;49.13;45.90;;;;;;;11.73;100.00;102247.84;1910177;74;85383;-71
2021/12/13 02:00:33;;;;;;;50.53;47.10;;;;;;;11.78;100.00;102244.29;1980986;71;39804;-72
2021/12/13 02:06:16;;;;;;;49.50;46.30;;;;;;;11.76;100.00;102240.94;1984740;71;39550;-70
2021/12/13 02:12:02;;;;;;;48.37;45.17;;;;;;;11.74;100.00;102250.09;1874337;76;86292;-72
2021/12/13 02:17:48;;;;;;;50.10;46.90;;;;;;;11.69;100.00;102252.22;1895504;75;86648;-71
2021/12/13 02:23:37;;;;;;;49.63;46.23;;;;;;;11.63;100.00;102264.41;1897767;72;86893;-72
2021/12/13 02:29:30;;;;;;;51.70;48.30;;;;;;;11.63;100.00;102271.91;1978907;71;39792;-70
2021/12/13 02:35:13;;;;;;;51.20;47.90;;;;;;;11.54;100.00;102274.30;1981539;72;86431;-71
2021/12/13 02:40:59;;;;;;;50.23;47.03;;;;;;;11.52;100.00;102282.05;1900996;74;86171;-73
2021/12/13 02:46:45;;;;;;;50.07;46.97;;;;;;;11.64;100.00;102293.90;1892478;75;85927;-69
2021/12/13 02:52:31;;;;;;;48.77;45.50;;;;;;;11.60;100.00;102286.32;1909461;74;86693;-69
2021/12/13 03:01:28;;;;;;;49.10;45.97;;;;;;;11.56;100.00;102294.34;1988281;69;39523;-71
2021/12/13 03:04:01;;;;;;;50.50;47.20;;;;;;;11.57;100.00;102293.80;1843210;75;936747;-72
2021/12/13 03:06:34;;;;;;;50.57;47.13;;;;;;;11.50;100.00;102296.78;1845029;75;941133;-72
2021/12/13 03:09:08;;;;;;;51.67;48.47;;;;;;;11.50;100.00;102305.13;1825630;74;940967;-70
2021/12/13 03:14:56;;;;;;;50.93;47.73;;;;;;;11.47;100.00;102300.63;1884225;74;85572;-73
2021/12/13 03:20:59;;;;;;;50.33;47.03;;;;;;;11.41;100.00;102303.88;1925559;73;86821;-71
2021/12/13 03:27:17;;;;;;;49.20;45.70;;;;;;;11.41;100.00;102310.83;1871537;74;86263;-73
2021/12/13 03:29:54;;;;;;;50.57;47.27;;;;;;;11.45;100.00;102325.92;1826332;75;936928;-71
2021/12/13 03:35:42;;;;;;;48.23;44.87;;;;;;;11.45;100.00;102313.40;1912747;74;86360;-71
2021/12/13 03:41:29;;;;;;;49.43;46.03;;;;;;;11.42;100.00;102314.73;1933212;72;86444;-69
2021/12/13 03:47:20;;;;;;;48.47;45.40;;;;;;;11.40;100.00;102315.55;1985745;71;39749;-69
2021/12/13 03:53:08;;;;;;;50.20;46.90;;;;;;;11.38;100.00;102323.30;1829092;76;86385;-69
2021/12/13 03:58:56;;;;;;;50.23;46.97;;;;;;;11.40;100.00;102315.55;1887653;73;85811;-73
2021/12/13 04:04:45;;;;;;;49.03;45.70;;;;;;;11.33;100.00;102316.29;1914062;74;86181;-71
2021/12/13 04:10:30;;;;;;;47.20;44.00;;;;;;;11.32;100.00;102304.02;1929318;73;85514;-68
2021/12/13 04:16:29;;;;;;;47.90;44.53;;;;;;;11.38;100.00;102302.43;1943206;71;39953;-71
2021/12/13 04:19:08;;;;;;;48.80;45.33;;;;;;;11.33;100.00;102298.20;1870948;74;937004;-71
2021/12/13 04:25:04;;;;;;;48.23;44.90;;;;;;;11.38;100.00;102301.61;1874542;74;86597;-74
2021/12/13 04:30:53;;;;;;;48.17;44.67;;;;;;;11.47;100.00;102307.59;1880278;74;85911;-69
2021/12/13 04:36:42;;;;;;;48.57;45.23;;;;;;;11.38;100.00;102307.99;1904505;72;86199;-70
2021/12/13 04:42:30;;;;;;;50.07;46.77;;;;;;;11.33;100.00;102315.44;1912531;74;87154;-69
2021/12/13 04:48:19;;;;;;;48.43;44.50;;;;;;;11.27;100.00;102306.71;1960687;71;39611;-69
2021/12/13 04:54:07;;;;;;;50.47;47.07;;;;;;;11.28;100.00;102309.80;1847476;76;86662;-71
2021/12/13 04:59:54;;;;;;;47.23;43.87;;;;;;;11.22;100.00;102311.64;1880085;74;86504;-69
2021/12/13 05:05:38;;;;;;;48.27;45.03;;;;;;;11.24;100.00;102317.81;1916068;72;86259;-71
2021/12/13 05:11:21;;;;;;;48.70;45.30;;;;;;;11.26;100.00;102327.27;1983478;71;39694;-69
2021/12/13 05:17:11;;;;;;;47.13;43.83;;;;;;;11.34;100.00;102324.05;1890098;74;85924;-73
2021/12/13 05:22:59;;;;;;;49.73;46.23;;;;;;;11.33;100.00;102329.34;1807220;78;85628;-70
2021/12/13 05:28:51;;;;;;;48.87;45.47;;;;;;;11.43;100.00;102345.64;1898395;73;86704;-71
2021/12/13 05:34:39;;;;;;;48.00;44.60;;;;;;;11.47;100.00;102334.84;1919612;73;86270;-72
2021/12/13 05:40:28;;;;;;;50.93;47.27;;;;;;;11.45;100.00;102330.09;1984487;71;39708;-71
2021/12/13 05:46:17;;;;;;;50.00;46.60;;;;;;;11.51;100.00;102332.41;1986844;71;39678;-73
2021/12/13 05:55:21;;;;;;;51.33;47.70;;;;;;;11.56;100.00;102332.46;1980428;71;39529;-70
2021/12/13 06:01:12;;;;;;;45.20;41.90;;;;;;;11.63;100.00;102340.95;1888849;74;85789;-71
2021/12/13 06:07:00;;;;;;;50.37;46.77;;;;;;;11.72;100.00;102340.81;1902155;74;86358;-71
2021/12/13 06:13:03;;;;;;;47.40;44.10;;;;;;;11.72;100.00;102355.30;1876195;74;86327;-70
2021/12/13 06:18:56;;;;;;;46.60;43.23;;;;;;;11.72;100.00;102351.94;1883999;74;85463;-69
2021/12/13 06:24:46;;;;;;;47.20;43.90;;;;;;;11.78;100.00;102348.14;1844319;76;86158;-72
2021/12/13 06:30:35;;;;;;;45.83;42.37;;;;;;;11.81;100.00;102351.80;1926268;73;86135;-71
2021/12/13 06:36:28;;;;;;;46.70;43.40;;;;;;;11.78;100.00;102369.03;1948441;71;39755;-72
2021/12/13 06:42:14;;;;;;;50.53;46.93;;;;;;;11.80;100.00;102376.59;1983275;71;39765;-71
2021/12/13 06:48:02;;;;;;;48.27;44.97;;;;;;;11.86;100.00;102378.87;1880303;75;85680;-71
2021/12/13 06:54:04;;;;;;;46.20;42.90;;;;;;;11.83;100.00;102388.59;1891064;74;86330;-71
2021/12/13 06:59:53;;;;;;;47.53;44.23;;;;;;;11.89;100.00;102401.20;1880632;73;86404;-72
2021/12/13 07:08:47;;;;;;;50.17;46.87;;;;;;;11.90;100.00;102402.32;1888451;73;86331;-73
2021/12/13 07:11:21;;;;;;;52.15;48.50;;;;;;;11.88;100.00;102411.50;1830548;76;938761;-73
2021/12/13 07:13:53;;;;;;;48.27;45.03;;;;;;;11.81;100.00;102408.88;1822901;76;939002;-73
2021/12/13 07:16:27;;;;;;;48.67;45.37;;;;;;;11.84;100.00;102406.15;1799987;76;940110;-71
2021/12/13 07:19:03;;;;;;;50.93;47.53;;;;;;;11.80;100.00;102407.22;1818416;77;939156;-73
2021/12/13 07:21:35;;;;;;;52.07;48.67;;;;;;;11.90;100.00;102415.39;1783479;78;940844;-73
2021/12/13 07:24:10;;;;;;;48.95;45.30;;;;;;;11.89;100.00;102417.91;1810239;76;941031;-70
2021/12/13 07:29:58;;;;;;;51.87;48.30;;;;;;;11.97;100.00;102403.00;1807818;78;86417;-69
2021/12/13 07:35:46;;;;;;;48.37;45.17;;;;;;;12.03;100.00;102405.28;1870007;75;85488;-68
2021/12/13 07:41:44;;;;;;;49.70;46.50;;;;;;;12.00;100.00;102417.80;1908105;74;86853;-72
2021/12/13 07:47:42;;;;;;;49.90;46.60;;;;;;;12.00;100.00;102433.66;1932293;73;86400;-69
2021/12/13 07:54:02;;;;;;;49.53;46.33;;;;;;;11.99;100.00;102440.32;1831370;77;85433;-73
2021/12/13 08:00:01;;;;;;;53.03;49.73;;;;;;;11.99;100.00;102455.09;1882922;75;86651;-73
2021/12/13 08:09:05;;;;;;;50.43;47.03;;;;;;;11.97;100.00;102463.42;1838327;76;86539;-70
2021/12/13 08:15:16;;;;;;;54.93;51.33;;;;;;;11.91;100.00;102466.67;1806714;78;86500;-70
2021/12/13 08:17:50;;;;;;;47.40;44.30;;;;;;;11.85;100.00;102478.27;1745826;80;936840;-72
2021/12/13 08:20:26;;;;;;;50.50;47.30;;;;;;;11.95;100.00;102486.49;1735605;80;941220;-72
2021/12/13 08:26:14;;;;;;;50.00;46.90;;;;;;;11.96;100.00;102480.68;1808878;78;86506;-69
2021/12/13 08:32:03;;;;;;;49.80;46.33;;;;;;;11.87;100.00;102487.77;1874239;74;86147;-69
2021/12/13 08:37:55;;;;;;;49.47;45.97;;;;;;;11.95;100.00;102491.52;1871589;75;85590;-71
2021/12/13 08:43:45;;;;;;;47.83;44.73;;;;;;;12.00;100.00;102500.50;1915343;74;86168;-71
2021/12/13 08:49:37;;;;;;;49.10;45.57;;;;;;;12.00;100.00;102501.34;1937952;72;85707;-69
2021/12/13 08:55:29;;;;;;;52.10;48.43;;;;;;;12.05;100.00;102511.73;1942177;72;86499;-68
2021/12/13 09:01:16;;;;;;;48.80;45.30;;;;;;;11.99;100.00;102516.36;1979977;71;39737;-73
2021/12/13 09:07:04;;;;;;;49.67;46.03;;;;;;;12.09;100.00;102533.25;1851754;76;86643;-71
2021/12/13 09:12:48;;;;;;;47.97;44.33;;;;;;;12.09;100.00;102523.50;1869741;75;86380;-70
2021/12/13 09:18:39;;;;;;;48.47;44.83;;;;;;;12.05;100.00;102535.41;1905989;72;86231;-73
2021/12/13 09:24:37;;;;;;;52.00;48.37;;;;;;;12.10;100.00;102546.64;1977149;71;40165;-71
2021/12/13 09:30:40;;;;;;;48.20;44.80;;;;;;;12.15;100.00;102550.91;1976891;71;39609;-68
2021/12/13 09:36:33;;;;;;;47.70;44.23;;;;;;;12.21;100.00;102555.44;1907541;72;86684;-71
2021/12/13 09:42:19;;;;;;;49.67;46.17;;;;;;;12.23;100.00;102544.89;1979210;71;39474;-69
2021/12/13 09:48:20;;;;;;;49.00;45.30;;;;;;;12.30;100.00;102553.91;1830922;76;86425;-75
2021/12/13 09:57:25;;;;;;;47.33;43.93;;;;;;;12.32;100.00;102553.12;1985432;71;39802;-72
2021/12/13 10:03:14;;;;;;;50.20;46.33;;;;;;;12.41;100.00;102557.12;1810493;78;85481;-70
2021/12/13 10:09:00;;;;;;;49.60;46.00;;;;;;;12.37;100.00;102556.50;1808619;78;86563;-72
2021/12/13 10:14:50;;;;;;;51.07;47.27;;;;;;;12.32;100.00;102562.88;1836271;76;86489;-72
2021/12/13 10:23:46;;;;;;;54.60;50.17;;;;;;;12.30;100.00;102564.52;1971804;70;86816;-72
2021/12/13 10:26:19;;;;;;;57.13;52.43;;;;;;;12.23;100.00;102574.15;1887623;73;939032;-72
2021/12/13 10:32:08;;;;;;;58.23;53.43;;;;;;;12.24;100.00;102566.06;1846986;76;86429;-70
2021/12/13 10:37:58;;;;;;;53.03;49.07;;;;;;;12.21;100.00;102561.01;1809005;78;86441;-72
2021/12/13 10:43:47;;;;;;;50.77;46.70;;;;;;;12.26;100.00;102563.33;1865146;75;86172;-70
2021/12/13 10:49:35;;;;;;;48.70;45.10;;;;;;;12.32;100.00;102571.23;1908686;73;85522;-72
2021/12/13 10:55:25;;;;;;;49.43;45.73;;;;;;;12.33;100.00;102566.78;1957071;71;39483;-71
2021/12/13 11:01:14;;;;;;;53.63;49.63;;;;;;;12.40;100.00;102550.44;1809924;78;85645;-70
2021/12/13 11:06:59;;;;;;;52.43;48.73;;;;;;;12.51;100.00;102552.27;1897205;74;86430;-74
2021/12/13 11:12:44;;;;;;;48.57;45.17;;;;;;;12.55;100.00;102552.05;1906459;73;87086;-72
2021/12/13 11:18:30;;;;;;;50.47;47.07;;;;;;;12.52;100.00;102543.66;1908143;73;86722;-71
2021/12/13 11:24:20;;;;;;;49.80;46.00;;;;;;;12.49;100.00;102537.21;1940426;71;40023;-71
2021/12/13 11:30:10;;;;;;;48.63;45.23;;;;;;;12.61;100.00;102563.02;1836505;76;86620;-70
2021/12/13 11:33:05;;;;;;;50.40;46.87;;;;;;;12.59;100.00;102568.55;1786007;77;938998;-70
2021/12/13 11:39:49;;;;;;;48.10;44.80;;;;;;;12.40;100.00;102552.69;1861293;75;86494;-70
2021/12/13 11:46:45;;;;;;;47.70;44.57;;;;;;;12.40;100.00;102553.23;1902191;74;86621;-69
2021/12/13 11:53:23;;;;;;;49.70;46.23;;;;;;;12.30;100.00;102556.15;1845483;76;86143;-72
2021/12/13 11:56:25;;;;;;;49.53;46.03;;;;;;;12.36;100.00;102559.87;1772978;78;936880;-70
2021/12/13 11:59:10;;;;;;;46.43;43.23;;;;;;;12.35;100.00;102556.78;1770646;78;939150;-72
2021/12/13 12:05:56;;;;;;;46.30;42.97;;;;;;;12.31;100.00;102545.85;1889808;74;85745;-72
2021/12/13 12:12:01;;;;;;;52.17;48.97;;;;;;;12.30;100.00;102556.70;1836866;78;86264;-70
2021/12/13 12:17:46;;;;;;;53.30;49.33;;;;;;;12.32;100.00;102548.94;1885050;74;86493;-72
2021/12/13 12:23:34;;;;;;;57.03;52.50;;;;;;;12.22;100.00;102549.62;1914559;74;86220;-72
2021/12/13 12:29:22;;;;;;;63.60;58.33;;;;;;;12.29;100.00;102551.67;1984621;71;39683;-72
2021/12/13 12:35:14;;;;;;;57.47;53.07;;;;;;;12.17;100.00;102533.36;1803048;78;85611;-72
2021/12/13 12:41:53;;;;;;;51.93;48.23;;;;;;;12.34;100.00;102536.97;1907371;74;86822;-70
2021/12/13 12:48:09;;;;;;;50.97;47.47;;;;;;;12.28;100.00;102529.08;1851362;76;85629;-72
2021/12/13 12:54:02;;;;;;;51.93;48.23;;;;;;;12.30;100.00;102531.62;1881509;74;86400;-71
2021/12/13 12:59:50;;;;;;;50.13;46.53;;;;;;;12.30;100.00;102527.44;1872686;74;86343;-70
2021/12/13 13:05:37;;;;;;;48.40;45.10;;;;;;;12.32;100.00;102519.68;1915818;72;86150;-70
2021/12/13 13:11:27;;;;;;;50.90;47.40;;;;;;;12.22;100.00;102509.22;1980969;71;39643;-70
2021/12/13 13:17:15;;;;;;;50.53;47.03;;;;;;;12.30;100.00;102517.14;1975420;71;39773;-71
2021/12/13 13:23:03;;;;;;;51.13;47.73;;;;;;;12.17;100.00;102515.25;1861398;76;86559;-70
2021/12/13 13:25:36;;;;;;;50.33;46.83;;;;;;;12.12;100.00;102525.77;1822219;77;938921;-72
2021/12/13 13:31:31;;;;;;;51.07;47.27;;;;;;;12.14;100.00;102512.44;1905658;72;86308;-69
2021/12/13 13:37:19;;;;;;;51.40;47.60;;;;;;;12.11;100.00;102517.11;1950888;71;39673;-70
2021/12/13 13:43:08;;;;;;;53.80;49.67;;;;;;;12.19;100.00;102508.31;1854677;76;85442;-72
2021/12/13 13:48:53;;;;;;;57.37;53.10;;;;;;;12.20;100.00;102514.19;1837603;76;86714;-69
2021/12/13 13:54:38;;;;;;;54.70;50.80;;;;;;;12.27;100.00;102504.27;1938352;73;86396;-76
2021/12/13 14:00:35;;;;;;;53.23;49.63;;;;;;;12.20;100.00;102507.23;1922372;73;86242;-70
2021/12/13 14:06:22;;;;;;;52.73;49.23;;;;;;;12.18;100.00;102514.16;1970527;71;40139;-73
2021/12/13 14:12:13;;;;;;;51.60;48.20;;;;;;;12.09;100.00;102507.34;1848012;76;86294;-69
2021/12/13 14:18:02;;;;;;;48.57;45.33;;;;;;;12.09;100.00;102498.44;1881725;75;86313;-72
2021/12/13 14:23:51;;;;;;;50.80;47.37;;;;;;;12.19;100.00;102494.96;1875271;73;86464;-72
2021/12/13 14:29:36;;;;;;;51.17;47.67;;;;;;;12.00;100.00;102494.94;1902421;73;86233;-71
2021/12/13 14:35:26;;;;;;;49.63;46.13;;;;;;;11.86;100.00;102484.69;1979185;71;39451;-71
2021/12/13 14:41:18;;;;;;;53.90;50.23;;;;;;;11.91;100.00;102496.45;1979284;71;39635;-70
2021/12/13 14:47:08;;;;;;;51.00;47.40;;;;;;;11.71;100.00;102510.86;1840897;76;86693;-71
2021/12/13 14:53:00;;;;;;;50.80;47.30;;;;;;;11.81;100.00;102526.36;1886454;74;86335;-71
2021/12/13 14:58:51;;;;;;;50.63;47.23;;;;;;;11.69;100.00;102524.17;1871936;75;86361;-70
2021/12/13 15:04:37;;;;;;;51.70;48.10;;;;;;;11.74;100.00;102527.08;1913278;74;85892;-71
2021/12/13 15:10:24;;;;;;;49.83;46.43;;;;;;;11.73;100.00;102529.02;1974764;71;40408;-70
2021/12/13 15:16:13;;;;;;;56.53;52.97;;;;;;;11.63;100.00;102526.05;1845120;76;86502;-70
2021/12/13 15:21:59;;;;;;;54.20;50.60;;;;;;;11.69;100.00;102540.88;1874875;74;86555;-71
2021/12/13 15:27:47;;;;;;;54.17;50.43;;;;;;;11.69;100.00;102551.47;1872217;73;85836;-75
2021/12/13 15:33:37;;;;;;;55.73;52.00;;;;;;;11.63;100.00;102551.64;1913207;73;86470;-74
2021/12/13 15:39:25;;;;;;;50.50;47.00;;;;;;;11.58;100.00;102544.05;1977212;71;39553;-74
2021/12/13 15:45:16;;;;;;;50.37;47.03;;;;;;;11.68;100.00;102551.17;1800866;78;86141;-74
2021/12/13 15:51:18;;;;;;;52.33;48.73;;;;;;;11.59;100.00;102559.66;1973504;71;39709;-72
2021/12/13 15:57:07;;;;;;;51.77;48.17;;;;;;;11.62;100.00;102555.52;1969436;69;85353;-70
2021/12/13 16:02:55;;;;;;;51.30;47.70;;;;;;;11.63;100.00;102544.14;1886758;74;86074;-73
2021/12/13 16:08:57;;;;;;;49.90;46.17;;;;;;;11.57;100.00;102556.27;1827733;76;86357;-74
2021/12/13 16:14:46;;;;;;;51.53;47.83;;;;;;;11.58;100.00;102555.72;1873817;75;86341;-73
2021/12/13 16:20:36;;;;;;;50.90;47.33;;;;;;;11.55;100.00;102568.18;1918002;72;85731;-72
2021/12/13 16:26:30;;;;;;;49.77;46.17;;;;;;;11.46;100.00;102572.48;1948289;71;40228;-69
2021/12/13 16:32:15;;;;;;;51.50;47.50;;;;;;;11.44;100.00;102569.09;1975692;71;42409;-72
2021/12/13 16:38:02;;;;;;;53.53;49.37;;;;;;;11.49;100.00;102576.70;1880262;75;86507;-70
2021/12/13 16:43:50;;;;;;;52.47;48.70;;;;;;;11.45;100.00;102572.73;1873986;74;86368;-70
2021/12/13 16:49:39;;;;;;;48.60;45.00;;;;;;;11.39;100.00;102568.99;1902747;74;86580;-71
2021/12/13 16:55:28;;;;;;;48.83;44.90;;;;;;;11.45;100.00;102576.36;1947215;73;85799;-72
2021/12/13 17:01:17;;;;;;;58.40;53.03;;;;;;;11.32;100.00;102572.48;1986863;71;39472;-70
2021/12/13 17:07:07;;;;;;;53.30;49.30;;;;;;;11.39;100.00;102577.34;1830993;76;86519;-70
2021/12/13 17:13:02;;;;;;;50.17;46.17;;;;;;;11.29;100.00;102569.66;1892471;74;86188;-72
2021/12/13 17:31:53;;;;;;;53.00;49.00;;;;;;;11.25;100.00;102585.70;1918923;70;33045;-72
2021/12/13 17:37:54;;;;;;;54.00;50.20;;;;;;;11.18;100.00;102601.67;1920295;74;33082;-74
2021/12/13 17:43:51;;;;;;;50.43;46.57;;;;;;;11.19;100.00;102606.16;1889450;73;39683;-71
2021/12/13 17:49:52;;;;;;;51.70;47.50;;;;;;;11.06;100.00;102609.21;1917168;74;86607;-74
2021/12/13 17:55:41;;;;;;;51.23;47.23;;;;;;;11.11;100.00;102618.52;1910967;74;86353;-73
2021/12/13 18:01:34;;;;;;;60.23;54.87;;;;;;;11.15;100.00;102627.21;1900092;72;86412;-71
2021/12/13 18:10:47;;;;;;;49.30;45.60;;;;;;;10.99;100.00;102619.09;1908833;73;86375;-77
2021/12/13 18:16:36;;;;;;;51.67;47.77;;;;;;;10.86;100.00;102602.67;1913490;73;86584;-70
2021/12/13 18:22:30;;;;;;;46.93;43.10;;;;;;;10.81;100.00;102607.58;1899125;74;39730;-71
2021/12/13 18:28:19;;;;;;;50.07;46.17;;;;;;;10.80;100.00;102628.12;1868160;76;85917;-78
2021/12/13 18:34:09;;;;;;;51.23;47.03;;;;;;;10.87;100.00;102631.61;1832218;75;85487;-80
2021/12/13 18:39:56;;;;;;;51.67;47.43;;;;;;;10.77;100.00;102626.37;1881921;74;86157;-76
2021/12/13 18:45:42;;;;;;;48.77;44.57;;;;;;;10.77;100.00;102613.33;1926613;73;86096;-77
2021/12/13 18:51:43;;;;;;;49.20;45.30;;;;;;;10.79;100.00;102618.08;1809354;79;86620;-79
2021/12/13 18:57:35;;;;;;;49.20;45.27;;;;;;;10.82;100.00;102637.62;1912551;73;86175;-70
2021/12/13 19:03:30;;;;;;;58.93;53.33;;;;;;;10.85;100.00;102645.46;1898649;74;39695;-76
2021/12/13 19:09:16;;;;;;;57.73;52.27;;;;;;;10.90;100.00;102637.24;1808038;76;86318;-78
2021/12/13 19:15:13;;;;;;;57.53;52.63;;;;;;;10.90;100.00;102656.16;1851546;76;86440;-81
2021/12/13 19:21:09;;;;;;;55.83;50.70;;;;;;;10.90;100.00;102666.44;1843161;75;85571;-76
2021/12/13 19:26:55;;;;;;;50.03;45.93;;;;;;;10.85;100.00;102664.37;1906226;73;86248;-77
2021/12/13 19:32:46;;;;;;;51.30;47.17;;;;;;;11.00;100.00;102675.53;1919543;73;86827;-76
2021/12/13 19:35:23;;;;;;;49.10;45.30;;;;;;;10.95;100.00;102684.06;1846784;74;938715;-78
2021/12/13 19:41:12;;;;;;;50.23;46.23;;;;;;;10.94;100.00;102662.92;1872523;76;85856;-77
2021/12/13 19:47:09;;;;;;;49.13;45.43;;;;;;;10.87;100.00;102659.95;1819742;78;85914;-77
2021/12/13 19:53:10;;;;;;;49.33;45.47;;;;;;;10.95;100.00;102670.73;1867969;75;86274;-76
2021/12/13 19:58:58;;;;;;;50.27;46.53;;;;;;;10.97;100.00;102671.31;1871803;74;86255;-79
2021/12/13 20:04:47;;;;;;;50.23;46.50;;;;;;;11.03;100.00;102665.33;1906752;74;86090;-71
2021/12/13 20:10:38;;;;;;;50.40;46.10;;;;;;;10.92;100.00;102662.84;1915475;72;86463;-78
2021/12/13 20:16:26;;;;;;;49.37;45.47;;;;;;;10.99;100.00;102655.78;1910481;74;39562;-77
2021/12/13 20:22:17;;;;;;;49.53;45.77;;;;;;;10.89;100.00;102644.73;1798587;77;85566;-77
2021/12/13 20:28:07;;;;;;;52.37;48.27;;;;;;;10.89;100.00;102636.93;1866441;76;86812;-76
2021/12/13 20:30:40;;;;;;;53.73;49.33;;;;;;;10.84;100.00;102636.81;1821697;76;938859;-76
2021/12/13 20:36:30;;;;;;;52.07;47.63;;;;;;;10.98;100.00;102647.98;1901358;74;39525;-78
2021/12/13 20:42:20;;;;;;;54.07;49.77;;;;;;;10.95;100.00;102653.47;1788871;78;84743;-82
2021/12/13 20:44:53;;;;;;;54.20;50.13;;;;;;;10.94;100.00;102666.25;1739772;79;936989;-77
2021/12/13 20:50:44;;;;;;;50.10;46.00;;;;;;;10.96;100.00;102674.63;1918400;72;86602;-70
2021/12/13 20:56:33;;;;;;;51.33;47.03;;;;;;;10.98;100.00;102667.45;1904159;73;39534;-70
2021/12/13 21:02:21;;;;;;;48.63;44.73;;;;;;;11.05;100.00;102658.96;1874197;73;39591;-76
2021/12/13 21:08:11;;;;;;;49.97;45.77;;;;;;;10.98;100.00;102660.50;1751936;80;85827;-76
2021/12/13 21:13:57;;;;;;;49.37;45.37;;;;;;;11.02;100.00;102646.41;1867584;75;85569;-79
2021/12/13 21:22:54;;;;;;;50.00;46.20;;;;;;;10.97;100.00;102633.77;1884629;74;86259;-77
2021/12/13 21:25:28;;;;;;;50.47;46.57;;;;;;;10.87;100.00;102656.63;1791239;77;938887;-77
2021/12/13 21:28:02;;;;;;;52.00;47.80;;;;;;;10.85;100.00;102646.85;1788543;77;939144;-77
2021/12/13 21:30:36;;;;;;;48.57;44.63;;;;;;;10.73;100.00;102631.58;1785763;77;941057;-70
2021/12/13 21:33:07;;;;;;;49.97;45.87;;;;;;;10.78;100.00;102632.24;1795677;77;940962;-74
2021/12/13 21:35:44;;;;;;;50.27;46.43;;;;;;;10.76;100.00;102643.59;1824686;76;941097;-70
2021/12/13 21:44:22;;;;;;;49.17;45.27;;;;;;;10.78;100.00;102623.33;1911537;74;39548;-70
2021/12/13 21:50:14;;;;;;;49.67;45.97;;;;;;;10.90;100.00;102642.26;1838834;75;86419;-71
2021/12/13 21:56:03;;;;;;;50.13;46.30;;;;;;;10.86;100.00;102646.62;1820085;78;86198;-70
2021/12/13 22:01:52;;;;;;;50.90;47.00;;;;;;;10.87;100.00;102660.80;1841786;76;85558;-69
2021/12/13 22:10:48;;;;;;;48.33;44.37;;;;;;;11.00;100.00;102669.97;1901380;74;86510;-70
2021/12/13 22:16:37;;;;;;;49.70;45.87;;;;;;;10.92;100.00;102680.38;1912842;74;86513;-70
2021/12/13 22:22:25;;;;;;;48.77;44.77;;;;;;;10.90;100.00;102671.45;1905376;74;39695;-77
2021/12/13 22:28:17;;;;;;;50.50;46.53;;;;;;;10.89;100.00;102668.91;1820931;76;85671;-77
2021/12/13 22:34:06;;;;;;;52.30;48.47;;;;;;;10.84;100.00;102668.78;1886727;74;86425;-70
2021/12/13 22:39:56;;;;;;;52.70;48.63;;;;;;;10.76;100.00;102679.73;1846088;76;86712;-75
2021/12/13 22:45:46;;;;;;;52.23;48.03;;;;;;;10.59;100.00;102652.36;1938108;72;86299;-77
2021/12/13 22:51:34;;;;;;;51.37;47.30;;;;;;;10.58;100.00;102656.22;1924617;73;86354;-76
2021/12/13 22:57:20;;;;;;;53.47;49.30;;;;;;;10.56;100.00;102660.34;1959757;71;39534;-70
2021/12/13 23:03:08;;;;;;;51.63;47.63;;;;;;;10.58;100.00;102654.83;1847233;76;86211;-76
2021/12/13 23:08:54;;;;;;;51.97;47.90;;;;;;;10.60;100.00;102663.78;1878221;75;85331;-74
2021/12/13 23:14:40;;;;;;;53.57;49.30;;;;;;;10.63;100.00;102652.72;1907761;73;86542;-70
2021/12/13 23:20:27;;;;;;;51.57;47.67;;;;;;;10.73;100.00;102665.48;1949149;71;39651;-70
2021/12/13 23:26:13;;;;;;;51.30;47.33;;;;;;;10.71;100.00;102674.59;1840781;76;86469;-76
2021/12/13 23:32:02;;;;;;;49.93;46.13;;;;;;;10.63;100.00;102673.56;1808627;76;86297;-75
2021/12/13 23:37:49;;;;;;;51.77;47.67;;;;;;;10.54;100.00;102655.02;1896091;73;86882;-76
2021/12/13 23:49:40;;;;;;;51.97;47.93;;;;;;;10.48;100.00;102654.61;1912725;72;86379;-70
2021/12/13 23:55:31;;;;;;;51.57;47.50;;;;;;;10.52;100.00;102662.76;1979265;71;39726;-76
